Time;durP1;ratioP1;P1;durP2;ratioP2;P2;SDS_P1;SDS_P2;PMS_P1;PMS_P2;Temp;Humidity;BMP_temperature;BMP_pressure;BME280_temperature;BME280_humidity;BME280_pressure;Samples;Min_cycle;Max_cycle;Signal;HPM_P1;HPM_P2
2022/06/14 00:01:16;;;;;;;7.88;2.80;;;13.70;95.50;;;;;;4966651;28;94975;-72
2022/06/14 00:03:45;;;;;;;11.70;2.80;;;13.70;95.50;;;;;;4935442;28;92449;-72
2022/06/14 00:06:22;;;;;;;10.48;3.45;;;13.70;95.60;;;;;;4936735;28;93241;-72
2022/06/14 00:08:49;;;;;;;7.60;3.65;;;13.70;95.70;;;;;;4936579;28;93067;-72
2022/06/14 00:11:19;;;;;;;9.10;3.65;;;13.60;95.80;;;;;;4935578;28;92412;-72
2022/06/14 00:13:47;;;;;;;4.43;2.70;;;13.50;95.90;;;;;;4936607;28;92414;-72
2022/06/14 00:16:15;;;;;;;8.40;3.40;;;13.50;96.10;;;;;;4936767;28;93174;-72
2022/06/14 00:18:43;;;;;;;9.30;3.72;;;13.50;96.10;;;;;;4934534;28;103025;-72
2022/06/14 00:21:10;;;;;;;8.40;3.35;;;13.40;96.10;;;;;;4936941;28;92466;-72
2022/06/14 00:23:38;;;;;;;7.60;3.15;;;13.40;96.10;;;;;;4936554;28;92459;-72
2022/06/14 00:26:05;;;;;;;6.63;3.25;;;13.40;96.20;;;;;;4933690;28;98074;-72
2022/06/14 00:28:34;;;;;;;8.70;3.65;;;13.40;96.20;;;;;;4936570;28;95357;-72
2022/06/14 00:31:07;;;;;;;7.25;3.53;;;13.40;96.30;;;;;;4936516;28;92491;-72
2022/06/14 00:33:34;;;;;;;;;;;13.40;96.30;;;;;;4935945;28;93357;-72
2022/06/14 00:36:09;;;;;;;13.05;3.40;;;13.20;96.50;;;;;;4935928;28;95842;-71
2022/06/14 00:38:38;;;;;;;9.05;4.20;;;13.20;96.50;;;;;;4936708;28;92949;-72
2022/06/14 00:41:06;;;;;;;7.28;3.35;;;13.20;96.50;;;;;;4934889;28;92527;-72
2022/06/14 00:43:33;;;;;;;7.00;2.83;;;13.20;96.60;;;;;;4936880;28;91689;-72
2022/06/14 00:46:40;;;;;;;10.25;4.00;;;13.20;96.70;;;;;;4950982;28;92470;-72
2022/06/14 00:49:19;;;;;;;7.05;2.90;;;13.20;96.50;;;;;;4894861;28;94620;-72
2022/06/14 00:52:02;;;;;;;8.15;2.88;;;13.10;96.60;;;;;;4931929;28;94796;-72
2022/06/14 00:54:34;;;;;;;7.28;2.75;;;13.20;96.60;;;;;;4936558;28;92510;-72
2022/06/14 00:57:30;;;;;;;5.93;3.00;;;13.10;96.60;;;;;;4934718;28;95727;-72
2022/06/14 01:00:15;;;;;;;7.75;2.80;;;13.00;96.70;;;;;;4933755;28;92905;-72
2022/06/14 01:02:52;;;;;;;8.43;2.95;;;13.00;96.80;;;;;;4936337;28;92499;-71
2022/06/14 01:06:05;;;;;;;6.20;2.72;;;13.00;96.90;;;;;;4934925;28;92373;-72
2022/06/14 01:08:17;;;;;;;10.07;3.92;;;13.00;96.80;;;;;;4936052;28;93312;-72
2022/06/14 01:10:47;;;;;;;7.00;3.25;;;12.90;96.90;;;;;;4936305;28;92952;-72
2022/06/14 01:13:17;;;;;;;10.15;3.30;;;12.90;97.00;;;;;;4934732;28;92470;-72
2022/06/14 01:15:48;;;;;;;8.32;2.88;;;12.80;97.10;;;;;;4935976;28;92498;-72
2022/06/14 01:18:16;;;;;;;6.55;3.15;;;12.90;97.10;;;;;;4965866;28;95552;-71
2022/06/14 01:20:43;;;;;;;8.60;3.10;;;12.80;97.10;;;;;;4934137;28;106285;-72
2022/06/14 01:23:14;;;;;;;9.25;4.20;;;12.80;97.10;;;;;;4967201;28;92497;-72
2022/06/14 01:25:46;;;;;;;17.02;3.55;;;12.80;97.20;;;;;;4934826;28;93721;-72
2022/06/14 01:28:16;;;;;;;11.20;2.90;;;12.80;97.20;;;;;;4935596;28;93404;-72
2022/06/14 01:30:49;;;;;;;13.93;3.75;;;12.80;97.20;;;;;;4935901;28;95822;-71
2022/06/14 01:33:32;;;;;;;9.43;3.92;;;12.70;97.20;;;;;;4937689;28;92508;-71
2022/06/14 01:36:05;;;;;;;7.67;2.93;;;12.70;97.20;;;;;;4939581;28;91585;-72
2022/06/14 01:38:33;;;;;;;10.98;4.15;;;12.70;97.30;;;;;;4970168;28;93166;-72
2022/06/14 01:41:32;;;;;;;9.43;3.05;;;12.60;97.40;;;;;;4921384;28;95668;-72
2022/06/14 01:44:37;;;;;;;10.15;3.70;;;12.70;97.40;;;;;;4931218;28;95496;-72
2022/06/14 01:47:28;;;;;;;10.57;3.13;;;12.60;97.50;;;;;;4897976;28;93003;-72
2022/06/14 01:53:19;;;;;;;6.37;3.83;;;12.60;97.50;;;;;;4938750;28;93096;-71
2022/06/14 01:55:49;;;;;;;12.10;3.47;;;12.50;97.60;;;;;;4939094;28;92326;-72
2022/06/14 01:58:29;;;;;;;4.28;2.70;;;12.60;97.70;;;;;;4937429;28;92534;-71
2022/06/14 02:01:01;;;;;;;8.02;3.45;;;12.60;97.70;;;;;;4937117;28;95779;-72
2022/06/14 02:06:56;;;;;;;8.02;3.65;;;12.60;97.70;;;;;;4939014;28;92428;-71
2022/06/14 02:09:38;;;;;;;13.50;3.63;;;12.50;97.80;;;;;;4970037;28;92811;-72
2022/06/14 02:12:09;;;;;;;8.85;4.25;;;12.40;97.90;;;;;;4935524;28;99845;-72
2022/06/14 02:14:39;;;;;;;7.80;3.75;;;12.40;98.00;;;;;;4938725;28;95148;-71
2022/06/14 02:17:34;;;;;;;8.98;3.55;;;12.40;98.10;;;;;;4938385;28;92353;-71
2022/06/14 02:20:07;;;;;;;7.28;3.10;;;12.40;98.20;;;;;;4961703;28;92931;-71
2022/06/14 02:22:42;;;;;;;8.60;3.63;;;12.40;98.30;;;;;;4937049;28;96783;-71
2022/06/14 02:25:21;;;;;;;14.02;4.40;;;12.40;98.40;;;;;;4936879;28;95572;-71
2022/06/14 02:27:53;;;;;;;10.27;3.72;;;12.40;98.40;;;;;;4969789;28;92551;-71
2022/06/14 02:30:27;;;;;;;10.05;4.45;;;12.30;98.60;;;;;;4937457;28;91685;-72
2022/06/14 02:33:20;;;;;;;7.07;3.85;;;12.30;98.60;;;;;;4938562;28;93223;-71
2022/06/14 02:35:52;;;;;;;10.45;4.00;;;12.40;98.60;;;;;;4938292;28;92949;-71
2022/06/14 02:38:30;;;;;;;7.93;3.95;;;12.30;98.60;;;;;;4937031;28;94766;-72
2022/06/14 02:41:13;;;;;;;9.52;3.97;;;12.30;98.60;;;;;;4936796;28;93110;-71
2022/06/14 02:44:11;;;;;;;11.10;3.80;;;12.30;98.60;;;;;;4968830;28;93149;-72
2022/06/14 02:46:41;;;;;;;8.13;3.88;;;12.30;98.70;;;;;;4936995;28;92872;-71
2022/06/14 02:49:23;;;;;;;6.32;4.05;;;12.30;98.70;;;;;;4937912;28;92453;-71
2022/06/14 02:51:55;;;;;;;7.97;3.05;;;12.30;98.70;;;;;;4937164;28;92483;-72
2022/06/14 02:54:25;;;;;;;12.38;4.32;;;12.20;98.70;;;;;;4968895;28;92505;-71
2022/06/14 02:57:07;;;;;;;10.88;3.85;;;12.30;98.70;;;;;;4936958;28;93660;-71
2022/06/14 02:59:50;;;;;;;7.38;3.20;;;12.30;98.70;;;;;;4935939;28;93196;-71
2022/06/14 03:02:36;;;;;;;8.60;3.72;;;12.30;98.70;;;;;;4937732;28;92429;-71
2022/06/14 03:05:10;;;;;;;9.57;3.58;;;12.30;98.70;;;;;;4935036;28;98207;-71
2022/06/14 03:08:07;;;;;;;14.55;4.82;;;12.30;98.70;;;;;;4937677;28;94228;-72
2022/06/14 03:11:01;;;;;;;9.20;3.53;;;12.30;98.60;;;;;;4938023;28;92514;-72
2022/06/14 03:13:55;;;;;;;11.80;3.60;;;12.20;98.70;;;;;;4960980;28;92567;-71
2022/06/14 03:16:35;;;;;;;11.52;3.85;;;12.30;98.70;;;;;;4936215;28;93058;-71
2022/06/14 03:19:13;;;;;;;7.80;3.30;;;12.20;98.80;;;;;;4937701;28;93141;-71
2022/06/14 03:22:08;;;;;;;6.13;3.20;;;12.20;98.70;;;;;;4937987;28;93091;-71
2022/06/14 03:24:45;;;;;;;8.10;3.33;;;12.30;98.70;;;;;;4937016;28;91784;-71
2022/06/14 03:27:14;;;;;;;10.07;3.50;;;12.30;98.60;;;;;;4937408;28;93987;-71
2022/06/14 03:30:01;;;;;;;5.22;3.67;;;12.20;98.50;;;;;;4935901;28;94665;-71
2022/06/14 03:32:52;;;;;;;11.55;3.50;;;12.30;98.40;;;;;;4934808;28;94863;-71
2022/06/14 03:35:51;;;;;;;10.20;3.25;;;12.30;98.20;;;;;;4937257;28;92896;-72
2022/06/14 03:38:33;;;;;;;9.73;3.95;;;12.30;98.20;;;;;;4928250;28;92955;-71
2022/06/14 03:41:01;;;;;;;6.95;3.35;;;12.40;98.20;;;;;;4936068;28;93070;-71
2022/06/14 03:43:32;;;;;;;6.60;3.70;;;12.40;98.10;;;;;;4936765;28;92332;-71
2022/06/14 03:46:13;;;;;;;7.13;3.65;;;12.40;97.90;;;;;;4937586;28;92500;-71
2022/06/14 03:48:44;;;;;;;11.55;3.63;;;12.50;97.80;;;;;;4937236;28;93142;-71
2022/06/14 03:51:22;;;;;;;8.80;4.30;;;12.50;97.80;;;;;;4937505;28;95699;-71
2022/06/14 03:54:01;;;;;;;7.35;3.65;;;12.60;97.70;;;;;;4935915;28;92444;-72
2022/06/14 03:56:34;;;;;;;10.95;3.40;;;12.70;97.60;;;;;;4937011;28;92419;-71
2022/06/14 03:59:47;;;;;;;7.18;3.20;;;12.90;97.20;;;;;;4935769;28;95762;-71
2022/06/14 04:02:52;;;;;;;6.50;3.85;;;13.00;96.90;;;;;;4967491;28;95478;-71
2022/06/14 04:05:25;;;;;;;8.40;3.63;;;13.10;96.80;;;;;;4935432;28;92590;-72
2022/06/14 04:08:39;;;;;;;6.35;2.88;;;13.10;96.80;;;;;;4936102;28;92456;-72
2022/06/14 04:11:12;;;;;;;;;;;13.10;96.60;;;;;;4896552;28;93307;-72
2022/06/14 04:14:00;;;;;;;7.38;3.70;;;12.90;96.70;;;;;;4931308;28;92565;-71
2022/06/14 04:16:44;;;;;;;8.45;3.30;;;13.00;96.80;;;;;;4935542;28;92445;-72
2022/06/14 04:19:50;;;;;;;5.85;3.50;;;13.00;96.60;;;;;;4937524;28;92154;-71
2022/06/14 04:22:40;;;;;;;6.70;2.95;;;13.10;96.60;;;;;;4967702;28;94701;-72
2022/06/14 04:25:19;;;;;;;6.80;3.38;;;13.10;96.70;;;;;;4936642;28;93035;-71
2022/06/14 04:28:10;;;;;;;7.72;3.75;;;13.10;96.70;;;;;;4934767;28;95402;-71
2022/06/14 04:31:01;;;;;;;7.05;3.17;;;13.20;96.60;;;;;;4936813;28;93246;-71
2022/06/14 04:33:36;;;;;;;9.57;4.32;;;13.30;96.60;;;;;;4934876;28;95772;-72
2022/06/14 04:36:14;;;;;;;5.97;3.00;;;13.30;96.60;;;;;;4935163;28;95723;-72
2022/06/14 04:38:53;;;;;;;11.32;3.78;;;13.50;96.60;;;;;;4967731;28;92517;-72
2022/06/14 04:41:29;;;;;;;8.00;3.53;;;13.60;96.50;;;;;;4936561;28;92866;-72
2022/06/14 04:44:08;;;;;;;10.40;4.13;;;13.70;96.40;;;;;;4935423;28;92997;-72
2022/06/14 04:46:44;;;;;;;10.38;4.43;;;13.80;96.20;;;;;;4936664;28;92942;-72
2022/06/14 04:49:28;;;;;;;9.63;4.50;;;13.90;96.10;;;;;;4936775;28;92452;-72
2022/06/14 04:52:06;;;;;;;13.63;3.67;;;14.10;95.80;;;;;;4935077;28;92566;-72
2022/06/14 04:54:47;;;;;;;14.45;4.22;;;14.20;95.70;;;;;;4934976;28;97018;-72
2022/06/14 04:57:37;;;;;;;10.13;3.67;;;14.30;95.60;;;;;;4936183;28;95456;-72
2022/06/14 05:00:13;;;;;;;11.43;3.83;;;14.40;95.30;;;;;;4934708;28;92484;-72
2022/06/14 05:02:48;;;;;;;14.13;3.45;;;14.60;95.30;;;;;;4935853;28;92431;-72
2022/06/14 05:05:51;;;;;;;10.70;4.45;;;14.70;95.10;;;;;;4952078;28;95854;-72
2022/06/14 05:08:34;;;;;;;6.80;3.50;;;15.00;94.70;;;;;;4967688;28;95592;-72
2022/06/14 05:11:03;;;;;;;10.73;4.10;;;15.10;94.60;;;;;;4939767;28;92474;-72
2022/06/14 05:14:06;;;;;;;7.65;3.78;;;15.20;94.40;;;;;;4939625;28;91698;-72
2022/06/14 05:16:37;;;;;;;11.45;3.65;;;15.40;94.20;;;;;;4898263;28;93681;-72
2022/06/14 05:19:09;;;;;;;8.80;3.75;;;15.50;94.10;;;;;;4928198;28;95563;-72
2022/06/14 05:22:23;;;;;;;10.30;4.18;;;15.60;93.90;;;;;;4938303;28;94767;-71
2022/06/14 05:24:50;;;;;;;6.47;3.13;;;15.80;93.80;;;;;;4914161;28;92502;-71
2022/06/14 05:27:28;;;;;;;6.35;3.60;;;15.80;93.80;;;;;;4914432;28;93357;-71
2022/06/14 05:30:19;;;;;;;7.45;4.82;;;16.00;93.60;;;;;;4920908;28;92876;-71
2022/06/14 05:33:01;;;;;;;8.90;4.50;;;16.10;93.40;;;;;;4937876;28;92490;-71
2022/06/14 05:35:35;;;;;;;8.85;3.38;;;16.20;93.40;;;;;;4939226;28;92431;-71
2022/06/14 05:38:10;;;;;;;7.70;3.22;;;16.30;93.40;;;;;;4970329;28;93235;-71
2022/06/14 05:40:56;;;;;;;9.82;3.80;;;16.40;93.40;;;;;;4939569;28;92971;-71
2022/06/14 05:43:29;;;;;;;8.80;2.60;;;16.50;93.30;;;;;;4937713;28;92497;-71
2022/06/14 05:46:04;;;;;;;10.02;3.88;;;16.70;93.00;;;;;;4939135;28;92516;-71
2022/06/14 05:48:38;;;;;;;7.50;3.75;;;16.90;92.80;;;;;;4935830;28;98180;-71
2022/06/14 05:51:09;;;;;;;10.82;2.95;;;17.00;92.70;;;;;;4937417;28;98155;-71
2022/06/14 05:54:00;;;;;;;6.90;2.72;;;17.10;92.50;;;;;;4937309;28;92415;-71
2022/06/14 05:56:34;;;;;;;7.30;3.10;;;17.30;92.20;;;;;;4937529;28;92509;-71
2022/06/14 05:59:31;;;;;;;11.07;3.40;;;17.30;92.10;;;;;;4939016;28;93276;-71
2022/06/14 06:02:23;;;;;;;10.45;3.22;;;17.50;91.80;;;;;;4938692;28;93690;-74
2022/06/14 06:05:01;;;;;;;9.85;2.97;;;17.60;91.70;;;;;;4937314;28;92429;-71
2022/06/14 06:07:33;;;;;;;10.48;2.33;;;17.80;91.50;;;;;;4937960;28;91731;-71
2022/06/14 06:10:13;;;;;;;9.50;3.15;;;17.80;91.10;;;;;;4937327;28;95880;-71
2022/06/14 06:12:55;;;;;;;10.02;3.38;;;17.90;90.80;;;;;;4938579;28;93421;-71
2022/06/14 06:15:28;;;;;;;9.60;2.95;;;18.00;90.70;;;;;;4936045;28;94886;-71
2022/06/14 06:18:05;;;;;;;9.90;3.10;;;17.90;90.70;;;;;;4936140;28;92908;-71
2022/06/14 06:20:55;;;;;;;7.32;3.20;;;18.00;90.60;;;;;;4936883;28;95921;-71
2022/06/14 06:23:29;;;;;;;10.20;4.18;;;18.00;90.50;;;;;;4938452;28;92938;-71
2022/06/14 06:25:56;;;;;;;5.85;2.70;;;18.00;90.60;;;;;;4938291;28;92460;-71
2022/06/14 06:28:38;;;;;;;10.40;3.08;;;18.00;90.60;;;;;;4969682;28;92417;-71
2022/06/14 06:31:19;;;;;;;7.03;3.85;;;18.10;89.90;;;;;;4938336;28;93321;-71
2022/06/14 06:33:50;;;;;;;9.25;3.70;;;18.10;90.00;;;;;;4938599;28;92898;-72
2022/06/14 06:36:37;;;;;;;5.78;3.55;;;18.20;89.50;;;;;;4969553;28;92386;-72
2022/06/14 06:39:10;;;;;;;7.78;3.47;;;18.20;89.10;;;;;;4938798;28;92314;-71
2022/06/14 06:41:50;;;;;;;9.00;3.50;;;18.20;89.30;;;;;;4935712;28;95688;-72
2022/06/14 06:44:26;;;;;;;7.05;2.63;;;18.30;89.40;;;;;;4938195;28;95402;-71
2022/06/14 06:47:14;;;;;;;7.10;2.20;;;18.40;89.50;;;;;;4938056;28;92460;-71
2022/06/14 06:49:51;;;;;;;6.07;2.20;;;18.60;88.40;;;;;;4936977;28;92477;-72
2022/06/14 06:52:24;;;;;;;8.93;3.25;;;18.60;88.10;;;;;;4968924;28;99280;-71
2022/06/14 06:54:59;;;;;;;6.05;3.40;;;18.70;87.70;;;;;;4969155;28;96140;-71
2022/06/14 06:57:29;;;;;;;8.05;2.53;;;18.70;87.30;;;;;;4938408;28;92349;-72
2022/06/14 06:59:59;;;;;;;8.32;2.58;;;18.70;87.60;;;;;;4937729;28;92549;-71
2022/06/14 07:02:56;;;;;;;7.95;4.00;;;18.80;87.60;;;;;;4920352;28;95768;-74
2022/06/14 07:05:26;;;;;;;8.32;2.67;;;18.80;87.60;;;;;;4936902;28;92403;-74
2022/06/14 07:08:04;;;;;;;8.77;2.92;;;18.70;88.30;;;;;;4967606;28;94911;-72
2022/06/14 07:10:54;;;;;;;7.60;2.00;;;18.90;87.80;;;;;;4936460;28;92616;-72
2022/06/14 07:13:32;;;;;;;5.82;2.80;;;18.90;87.00;;;;;;4936699;28;92422;-72
2022/06/14 07:16:21;;;;;;;6.45;2.85;;;18.90;87.10;;;;;;4937391;28;92988;-71
2022/06/14 07:19:13;;;;;;;4.40;1.73;;;19.00;87.20;;;;;;4936724;28;92992;-72
2022/06/14 07:21:49;;;;;;;6.88;2.97;;;19.10;86.30;;;;;;4968665;28;92531;-71
2022/06/14 07:24:48;;;;;;;5.05;3.53;;;19.20;86.00;;;;;;4937641;28;93343;-71
2022/06/14 07:28:04;;;;;;;4.10;2.22;;;19.50;86.00;;;;;;4937732;28;93004;-72
2022/06/14 07:30:49;;;;;;;6.13;2.00;;;19.80;84.60;;;;;;4937715;28;92455;-71
2022/06/14 07:33:23;;;;;;;4.22;2.25;;;20.00;83.30;;;;;;4968872;28;92679;-72
2022/06/14 07:36:07;;;;;;;5.63;3.28;;;20.10;83.30;;;;;;4934911;28;96141;-71
2022/06/14 07:38:53;;;;;;;4.30;1.90;;;20.20;82.80;;;;;;4968345;28;98107;-72
2022/06/14 07:41:39;;;;;;;5.25;2.28;;;20.20;82.40;;;;;;4937704;28;92441;-72
2022/06/14 07:44:15;;;;;;;3.45;1.55;;;20.30;81.60;;;;;;4936202;28;92907;-71
2022/06/14 07:47:27;;;;;;;4.05;3.47;;;20.30;81.50;;;;;;4937247;28;93299;-72
2022/06/14 07:50:07;;;;;;;4.35;2.05;;;20.40;79.90;;;;;;4933909;28;92906;-71
2022/06/14 07:52:46;;;;;;;4.88;1.70;;;20.40;79.60;;;;;;4935941;28;93056;-72
2022/06/14 07:55:30;;;;;;;4.70;1.98;;;20.40;79.30;;;;;;4937841;28;91636;-72
2022/06/14 07:58:04;;;;;;;6.07;3.05;;;20.30;80.50;;;;;;4936623;28;93318;-72
2022/06/14 08:03:38;;;;;;;4.50;1.77;;;20.80;80.30;;;;;;4934477;28;94920;-71
2022/06/14 08:06:31;;;;;;;3.75;2.45;;;20.90;78.40;;;;;;4934250;28;92602;-72
2022/06/14 08:09:04;;;;;;;5.00;2.22;;;21.00;77.20;;;;;;4935323;28;95719;-72
2022/06/14 08:11:44;;;;;;;4.72;2.58;;;21.10;78.10;;;;;;4935843;28;92971;-72
2022/06/14 08:14:19;;;;;;;3.80;1.50;;;21.00;76.00;;;;;;4935436;28;93041;-72
2022/06/14 08:16:48;;;;;;;3.53;1.67;;;20.80;76.50;;;;;;4937116;28;93254;-71
2022/06/14 08:19:28;;;;;;;4.95;2.50;;;20.50;77.20;;;;;;4935371;28;93090;-72
2022/06/14 08:22:10;;;;;;;4.97;3.50;;;20.80;78.10;;;;;;4935839;28;92929;-72
2022/06/14 08:24:42;;;;;;;5.20;2.40;;;21.70;77.30;;;;;;4935789;28;92887;-72
2022/06/14 08:27:22;;;;;;;6.30;4.43;;;23.00;74.90;;;;;;4935305;28;92970;-72
2022/06/14 08:30:05;;;;;;;4.20;2.20;;;24.60;71.20;;;;;;4935130;28;95620;-72
2022/06/14 08:32:41;;;;;;;5.03;2.88;;;26.10;65.50;;;;;;4936584;28;95416;-72
2022/06/14 08:35:23;;;;;;;5.88;2.78;;;27.10;63.70;;;;;;4967734;28;92450;-72
2022/06/14 08:37:57;;;;;;;5.17;1.90;;;28.40;58.50;;;;;;4936604;28;92415;-72
2022/06/14 08:40:41;;;;;;;4.18;1.73;;;28.50;56.70;;;;;;4937947;28;93375;-72
2022/06/14 08:43:15;;;;;;;5.32;1.80;;;28.30;56.50;;;;;;4970947;28;95629;-72
2022/06/14 08:46:00;;;;;;;4.70;2.40;;;28.00;55.90;;;;;;4938898;28;92528;-72
2022/06/14 08:48:52;;;;;;;5.88;1.88;;;27.60;56.20;;;;;;4940605;28;91751;-72
2022/06/14 08:51:40;;;;;;;4.68;2.03;;;26.90;55.40;;;;;;4939925;28;93293;-72
2022/06/14 08:54:16;;;;;;;4.32;2.35;;;26.40;57.20;;;;;;4939741;28;93079;-72
2022/06/14 08:56:55;;;;;;;3.22;1.70;;;26.80;56.10;;;;;;4937281;28;94982;-72
2022/06/14 08:59:40;;;;;;;3.30;2.38;;;27.30;55.70;;;;;;4937840;28;92506;-72
2022/06/14 09:02:38;;;;;;;2.88;2.30;;;28.20;52.20;;;;;;4939326;28;93829;-72
2022/06/14 09:05:42;;;;;;;2.35;1.60;;;28.70;50.20;;;;;;4939365;28;92916;-72
2022/06/14 09:08:50;;;;;;;3.10;2.00;;;29.20;49.20;;;;;;4939884;28;92355;-72
2022/06/14 09:11:39;;;;;;;3.47;1.50;;;29.70;48.40;;;;;;4925639;28;93704;-72
2022/06/14 09:14:54;;;;;;;3.63;2.25;;;30.10;47.70;;;;;;4938615;28;93260;-72
2022/06/14 09:17:55;;;;;;;4.07;2.42;;;30.00;46.90;;;;;;4939797;28;92960;-72
2022/06/14 09:20:42;;;;;;;3.47;2.75;;;29.50;47.00;;;;;;4938691;28;92537;-72
2022/06/14 09:23:33;;;;;;;3.85;1.30;;;28.60;48.10;;;;;;4939453;28;92569;-72
2022/06/14 09:26:18;;;;;;;3.88;1.50;;;28.00;48.60;;;;;;4936479;28;96783;-72
2022/06/14 09:29:14;;;;;;;4.95;2.65;;;27.20;49.90;;;;;;4939262;28;95357;-72
2022/06/14 09:31:55;;;;;;;4.55;2.47;;;26.50;50.40;;;;;;4938013;28;92459;-72
2022/06/14 09:34:50;;;;;;;4.78;2.55;;;25.80;51.40;;;;;;4937734;28;92506;-72
2022/06/14 09:37:45;;;;;;;7.85;3.33;;;25.50;51.60;;;;;;4937521;28;95807;-72
2022/06/14 09:40:43;;;;;;;3.40;1.80;;;25.30;51.80;;;;;;4937892;28;93182;-72
2022/06/14 09:43:16;;;;;;;2.95;2.67;;;25.30;52.90;;;;;;4939039;28;92402;-72
2022/06/14 09:45:44;;;;;;;4.82;1.50;;;25.20;52.30;;;;;;4938223;28;91816;-72
2022/06/14 09:48:28;;;;;;;3.53;3.10;;;25.30;51.60;;;;;;4937470;28;93162;-72
2022/06/14 09:51:13;;;;;;;3.13;1.58;;;25.50;51.40;;;;;;4937493;28;95412;-72
2022/06/14 09:54:17;;;;;;;5.38;2.30;;;25.50;52.30;;;;;;4936830;28;94774;-72
2022/06/14 09:56:59;;;;;;;;;;;25.50;51.80;;;;;;4919256;28;92572;-72
2022/06/14 10:00:14;;;;;;;2.38;2.17;;;25.20;52.90;;;;;;4937872;28;96059;-72
2022/06/14 10:02:56;;;;;;;2.95;2.17;;;25.00;54.90;;;;;;4964753;28;95320;-72
2022/06/14 10:05:55;;;;;;;2.92;2.20;;;24.80;54.70;;;;;;4938777;28;92436;-72
2022/06/14 10:08:55;;;;;;;3.13;2.47;;;24.80;54.90;;;;;;4937613;28;92506;-72
2022/06/14 10:11:46;;;;;;;4.35;1.30;;;24.70;54.40;;;;;;4938731;28;96574;-72
2022/06/14 10:14:28;;;;;;;3.13;1.30;;;24.50;54.90;;;;;;4938869;28;93087;-72
2022/06/14 10:16:57;;;;;;;2.65;1.48;;;24.00;55.60;;;;;;4937272;28;92586;-72
2022/06/14 10:19:53;;;;;;;5.07;1.90;;;23.90;56.60;;;;;;4938567;28;92993;-72
2022/06/14 10:22:30;;;;;;;3.20;2.00;;;24.20;57.30;;;;;;4937304;28;95681;-72
2022/06/14 10:25:13;;;;;;;4.55;3.15;;;24.30;56.60;;;;;;4938622;28;94118;-72
2022/06/14 10:28:14;;;;;;;4.18;2.05;;;24.50;55.60;;;;;;4938453;28;92413;-72
2022/06/14 10:30:50;;;;;;;5.47;2.40;;;24.80;54.40;;;;;;4938640;28;92427;-72
2022/06/14 10:34:01;;;;;;;4.90;1.80;;;24.90;54.10;;;;;;4936916;28;93271;-72
2022/06/14 10:36:43;;;;;;;3.72;2.17;;;25.10;53.10;;;;;;4897425;28;93012;-72
2022/06/14 10:39:42;;;;;;;3.40;1.42;;;24.80;52.60;;;;;;4934349;28;92481;-72
2022/06/14 10:42:32;;;;;;;3.03;2.13;;;24.70;53.40;;;;;;4938837;28;91697;-72
2022/06/14 10:45:26;;;;;;;3.03;2.75;;;24.70;53.80;;;;;;4936959;28;93303;-72
2022/06/14 10:48:29;;;;;;;3.15;1.50;;;24.60;53.80;;;;;;4937016;28;93800;-72
2022/06/14 10:51:27;;;;;;;4.77;1.93;;;24.50;54.60;;;;;;4935737;28;94951;-71
2022/06/14 10:54:15;;;;;;;6.45;1.50;;;24.40;54.90;;;;;;4938218;28;92503;-72
2022/06/14 10:57:05;;;;;;;3.92;2.03;;;24.40;55.70;;;;;;4938119;28;93328;-72
2022/06/14 10:59:50;;;;;;;3.10;2.85;;;24.40;54.80;;;;;;4938019;28;96525;-72
2022/06/14 11:02:25;;;;;;;2.65;1.50;;;24.50;55.20;;;;;;4937762;28;92910;-72
2022/06/14 11:04:59;;;;;;;3.60;1.83;;;24.40;54.40;;;;;;4968902;28;92438;-72
2022/06/14 11:07:42;;;;;;;2.00;1.17;;;24.40;54.20;;;;;;4937764;28;92500;-72
2022/06/14 11:10:19;;;;;;;4.93;2.10;;;24.50;54.10;;;;;;4936309;28;96422;-72
2022/06/14 11:12:52;;;;;;;3.55;1.20;;;24.70;53.80;;;;;;4936849;28;92792;-72
2022/06/14 11:15:46;;;;;;;2.65;1.60;;;24.90;52.70;;;;;;4936134;28;92929;-72
2022/06/14 11:18:24;;;;;;;4.35;2.35;;;25.10;52.50;;;;;;4934708;28;98188;-72
2022/06/14 11:20:58;;;;;;;3.33;1.40;;;25.10;52.20;;;;;;4937266;28;99836;-72
2022/06/14 11:23:39;;;;;;;4.68;3.30;;;25.20;52.70;;;;;;4937292;28;92510;-72
2022/06/14 11:26:06;;;;;;;28.20;3.53;;;25.30;53.20;;;;;;4968727;28;92431;-72
2022/06/14 11:28:46;;;;;;;3.45;1.70;;;25.20;52.40;;;;;;4937270;28;92470;-72
2022/06/14 11:31:29;;;;;;;3.88;2.95;;;25.30;51.70;;;;;;4935757;28;94157;-72
2022/06/14 11:34:23;;;;;;;3.55;3.25;;;25.20;51.60;;;;;;4937698;28;92536;-72
2022/06/14 11:37:07;;;;;;;2.83;1.70;;;24.90;52.10;;;;;;4937144;28;92295;-72
2022/06/14 11:39:41;;;;;;;4.45;2.30;;;24.90;52.60;;;;;;4935664;28;94352;-72
2022/06/14 11:43:04;;;;;;;2.13;1.95;;;25.10;52.90;;;;;;4937323;28;93094;-72
2022/06/14 11:45:51;;;;;;;3.45;1.70;;;25.40;52.30;;;;;;4895550;28;95065;-72
2022/06/14 11:48:24;;;;;;;3.30;2.47;;;25.50;52.00;;;;;;4896676;28;92433;-72
2022/06/14 11:51:18;;;;;;;2.30;1.38;;;25.50;52.40;;;;;;4928015;28;92511;-72
2022/06/14 11:54:13;;;;;;;3.80;2.40;;;25.70;52.20;;;;;;4935674;28;95522;-72
2022/06/14 11:56:58;;;;;;;4.50;2.88;;;25.70;51.80;;;;;;4935824;28;92451;-72
2022/06/14 11:59:38;;;;;;;2.50;1.20;;;25.80;51.50;;;;;;4936369;28;92365;-72
2022/06/14 12:02:27;;;;;;;2.40;1.40;;;25.80;51.60;;;;;;4937112;28;93276;-72
2022/06/14 12:05:12;;;;;;;3.05;2.42;;;25.80;50.90;;;;;;4937383;28;93066;-72
2022/06/14 12:08:06;;;;;;;3.63;2.53;;;25.80;52.40;;;;;;4935301;28;92461;-72
2022/06/14 12:11:25;;;;;;;3.33;1.50;;;25.60;51.70;;;;;;4935726;28;92548;-72
2022/06/14 12:14:31;;;;;;;3.80;1.70;;;25.50;51.40;;;;;;4894448;28;94903;-72
2022/06/14 12:17:30;;;;;;;3.00;1.88;;;25.50;51.00;;;;;;4894654;28;98044;-72
2022/06/14 12:20:05;;;;;;;3.22;2.63;;;25.60;50.60;;;;;;4935525;28;92533;-72
2022/06/14 12:22:37;;;;;;;3.00;1.45;;;25.70;50.90;;;;;;4968204;28;93060;-72
2022/06/14 12:28:25;;;;;;;2.05;1.25;;;25.90;51.10;;;;;;4935204;28;95510;-72
2022/06/14 12:31:12;;;;;;;3.28;1.75;;;26.20;50.90;;;;;;4936781;28;92358;-72
2022/06/14 12:33:46;;;;;;;5.05;2.53;;;26.40;50.00;;;;;;4935996;28;92450;-72
2022/06/14 12:36:30;;;;;;;3.63;2.15;;;26.70;50.50;;;;;;4936736;28;93289;-72
2022/06/14 12:39:04;;;;;;;2.35;1.23;;;26.80;48.90;;;;;;4935271;28;92930;-72
2022/06/14 12:41:56;;;;;;;2.72;2.10;;;26.80;49.70;;;;;;4935519;28;94768;-72
2022/06/14 12:44:48;;;;;;;3.42;1.83;;;26.90;49.30;;;;;;4936405;28;92425;-72
2022/06/14 12:47:23;;;;;;;2.67;1.40;;;26.80;49.10;;;;;;4934786;28;95750;-72
2022/06/14 12:49:55;;;;;;;5.43;1.70;;;26.70;50.10;;;;;;4936506;28;93096;-72
2022/06/14 12:52:35;;;;;;;3.30;2.50;;;26.60;49.70;;;;;;4934933;28;92464;-72
2022/06/14 12:55:15;;;;;;;1.33;1.10;;;26.60;49.70;;;;;;4919082;28;93010;-72
2022/06/14 12:58:06;;;;;;;2.50;1.33;;;26.50;50.00;;;;;;4934724;28;95811;-72
2022/06/14 13:00:48;;;;;;;2.33;1.23;;;26.50;49.90;;;;;;4934904;28;93006;-72
2022/06/14 13:03:35;;;;;;;2.38;1.58;;;26.40;49.90;;;;;;4936571;28;93020;-72
2022/06/14 13:06:31;;;;;;;3.00;1.63;;;26.30;50.50;;;;;;4936293;28;92465;-72
2022/06/14 13:09:45;;;;;;;1.48;1.35;;;26.30;50.90;;;;;;4935017;28;95766;-72
2022/06/14 13:12:31;;;;;;;;;;;26.10;51.10;;;;;;4895769;28;95275;-72
2022/06/14 13:15:15;;;;;;;4.28;1.70;;;25.70;50.70;;;;;;4935850;28;92460;-72
2022/06/14 13:17:58;;;;;;;2.05;1.88;;;25.50;51.80;;;;;;4936172;28;92418;-72
2022/06/14 13:20:35;;;;;;;5.93;1.40;;;25.40;52.30;;;;;;4934753;28;93185;-72
2022/06/14 13:23:14;;;;;;;3.53;2.05;;;25.30;52.10;;;;;;4935873;28;92717;-72
2022/06/14 13:25:50;;;;;;;4.40;1.38;;;25.20;51.90;;;;;;4934730;28;92443;-71
2022/06/14 13:28:45;;;;;;;3.28;1.60;;;25.20;53.30;;;;;;4941508;28;92896;-72
2022/06/14 13:31:39;;;;;;;6.18;2.20;;;25.00;53.90;;;;;;4957350;28;95860;-72
2022/06/14 13:34:37;;;;;;;4.40;3.05;;;24.90;55.80;;;;;;4958689;28;93128;-72
2022/06/14 13:37:33;;;;;;;2.65;2.00;;;24.80;55.50;;;;;;4957892;28;94872;-72
2022/06/14 13:40:24;;;;;;;4.68;1.90;;;24.70;56.30;;;;;;4958924;28;92512;-72
2022/06/14 13:43:16;;;;;;;3.90;2.10;;;24.80;56.60;;;;;;4956737;28;95750;-72
2022/06/14 13:46:04;;;;;;;3.13;1.73;;;24.90;56.20;;;;;;4957169;28;93084;-72
2022/06/14 13:48:52;;;;;;;3.83;2.00;;;24.90;56.00;;;;;;4957171;28;92464;-72
2022/06/14 13:51:41;;;;;;;5.00;2.05;;;25.10;55.80;;;;;;4958888;28;92514;-72
2022/06/14 13:54:17;;;;;;;4.28;2.63;;;25.10;54.90;;;;;;4958451;28;93311;-72
2022/06/14 13:57:11;;;;;;;4.82;2.25;;;25.00;54.90;;;;;;4957314;28;92893;-72
2022/06/14 13:59:41;;;;;;;;;;;25.10;54.70;;;;;;4957019;28;92520;-72
2022/06/14 14:02:23;;;;;;;1.83;1.52;;;24.90;54.30;;;;;;4958145;28;92825;-72
2022/06/14 14:05:28;;;;;;;4.03;1.60;;;24.90;54.30;;;;;;4956845;28;95679;-72
2022/06/14 14:08:25;;;;;;;4.40;3.25;;;25.00;55.30;;;;;;4958268;28;95417;-72
2022/06/14 14:11:10;;;;;;;3.15;1.67;;;24.90;55.00;;;;;;4938482;28;92790;-73
2022/06/14 14:13:46;;;;;;;3.63;2.00;;;24.90;54.60;;;;;;4938416;28;92501;-73
2022/06/14 14:16:35;;;;;;;4.20;1.60;;;25.00;54.40;;;;;;4939028;28;93318;-74
2022/06/14 14:19:11;;;;;;;2.78;1.30;;;24.90;54.40;;;;;;4922036;28;95921;-71